createdAt,value
2023-02-25T00:00:45.248Z,2.89
2023-02-25T00:01:57.868Z,2.97
2023-02-25T00:02:47.330Z,2.89
2023-02-25T00:03:45.290Z,2.95
2023-02-25T00:04:45.240Z,2.97
2023-02-25T00:05:45.218Z,3.04
2023-02-25T00:06:45.248Z,3.04
2023-02-25T00:07:45.210Z,2.92
2023-02-25T00:08:45.186Z,2.92
2023-02-25T00:09:45.175Z,2.86
2023-02-25T00:10:45.169Z,2.86
2023-02-25T00:11:45.171Z,2.81
2023-02-25T00:12:45.171Z,2.79
2023-02-25T00:13:45.129Z,2.90
2023-02-25T00:14:46.179Z,2.94
2023-02-25T00:15:45.144Z,2.94
2023-02-25T00:16:45.223Z,2.83
2023-02-25T00:17:45.108Z,2.84
2023-02-25T00:18:45.101Z,2.81
2023-02-25T00:19:45.099Z,2.92
2023-02-25T00:20:45.095Z,2.90
2023-02-25T00:21:45.086Z,2.87
2023-02-25T00:22:45.061Z,2.81
2023-02-25T00:23:45.058Z,2.95
2023-02-25T00:24:45.039Z,2.87
2023-02-25T00:25:45.031Z,2.95
2023-02-25T00:26:45.057Z,2.92
2023-02-25T00:27:45.014Z,2.90
2023-02-25T00:28:45.024Z,2.89
2023-02-25T00:29:44.998Z,2.92
2023-02-25T00:30:45.095Z,2.80
2023-02-25T00:31:45.242Z,2.87
2023-02-25T00:32:45.018Z,2.83
2023-02-25T00:33:44.966Z,2.90
2023-02-25T00:34:44.961Z,2.84
2023-02-25T00:35:44.950Z,2.89
2023-02-25T00:36:44.968Z,2.86
2023-02-25T00:37:44.932Z,2.90
2023-02-25T00:38:44.925Z,2.83
2023-02-25T00:39:44.976Z,2.86
2023-02-25T00:40:44.907Z,2.79
2023-02-25T00:41:44.898Z,2.80
2023-02-25T00:42:44.903Z,2.80
2023-02-25T00:43:44.881Z,2.81
2023-02-25T00:44:44.872Z,2.77
2023-02-25T00:45:44.868Z,2.90
2023-02-25T00:46:44.901Z,2.80
2023-02-25T00:47:44.931Z,2.84
2023-02-25T00:48:44.842Z,2.69
2023-02-25T00:49:44.831Z,2.69
2023-02-25T00:50:44.829Z,2.65
2023-02-25T00:51:44.810Z,2.62
2023-02-25T00:52:44.819Z,2.66
2023-02-25T00:53:44.796Z,2.63
2023-02-25T00:54:44.792Z,2.61
2023-02-25T00:55:44.783Z,2.62
2023-02-25T00:56:44.773Z,2.61
2023-02-25T00:57:44.776Z,2.62
2023-02-25T00:58:44.766Z,2.62
2023-02-25T00:59:44.747Z,2.66
2023-02-25T01:00:51.501Z,2.58
2023-02-25T01:01:46.773Z,2.58
2023-02-25T01:02:44.778Z,2.59
2023-02-25T01:03:44.706Z,2.50
2023-02-25T01:04:44.698Z,2.51
2023-02-25T01:05:44.701Z,2.62
2023-02-25T01:06:44.687Z,2.50
2023-02-25T01:07:44.681Z,2.50
2023-02-25T01:08:44.657Z,2.48
2023-02-25T01:09:44.656Z,2.50
2023-02-25T01:10:44.641Z,2.44
2023-02-25T01:11:44.633Z,2.45
2023-02-25T01:12:44.636Z,2.41
2023-02-25T01:13:44.685Z,2.37
2023-02-25T01:14:44.619Z,2.53
2023-02-25T01:15:44.747Z,2.44
2023-02-25T01:16:44.591Z,2.44
2023-02-25T01:17:44.597Z,2.43
2023-02-25T01:18:44.591Z,2.41
2023-02-25T01:19:44.563Z,2.41
2023-02-25T01:20:44.573Z,2.50
2023-02-25T01:21:44.557Z,2.44
2023-02-25T01:22:44.548Z,2.48
2023-02-25T01:23:44.532Z,2.48
2023-02-25T01:24:44.522Z,2.40
2023-02-25T01:25:44.524Z,2.45
2023-02-25T01:26:44.506Z,2.50
2023-02-25T01:27:44.517Z,2.50
2023-02-25T01:28:44.494Z,2.48
2023-02-25T01:29:44.476Z,2.50
2023-02-25T01:30:44.485Z,2.48
2023-02-25T01:31:44.688Z,2.59
2023-02-25T01:32:44.553Z,2.43
2023-02-25T01:33:44.440Z,2.55
2023-02-25T01:34:44.431Z,2.44
2023-02-25T01:35:44.430Z,2.48
2023-02-25T01:36:44.421Z,2.47
2023-02-25T01:37:44.424Z,2.47
2023-02-25T01:38:44.405Z,2.50
2023-02-25T01:39:44.401Z,2.47
2023-02-25T01:40:44.388Z,2.44
2023-02-25T01:41:44.377Z,2.40
2023-02-25T01:42:44.387Z,2.45
2023-02-25T01:43:44.360Z,2.41
2023-02-25T01:44:44.360Z,2.43
2023-02-25T01:45:44.347Z,2.47
2023-02-25T01:46:44.371Z,2.48
2023-02-25T01:47:44.338Z,2.61
2023-02-25T01:48:44.317Z,2.63
2023-02-25T01:49:44.306Z,2.66
2023-02-25T01:50:44.302Z,2.58
2023-02-25T01:51:44.297Z,2.63
2023-02-25T01:52:44.295Z,2.53
2023-02-25T01:53:44.275Z,2.51
2023-02-25T01:54:44.262Z,2.53
2023-02-25T01:55:44.257Z,2.51
2023-02-25T01:56:44.242Z,2.53
2023-02-25T01:57:44.250Z,2.56
2023-02-25T01:58:44.231Z,2.66
2023-02-25T01:59:44.220Z,2.63
2023-02-25T02:00:44.274Z,2.59
2023-02-25T02:01:44.204Z,2.58
2023-02-25T02:02:44.246Z,2.69
2023-02-25T02:03:44.203Z,2.63
2023-02-25T02:04:44.180Z,2.58
2023-02-25T02:05:44.174Z,2.55
2023-02-25T02:06:44.169Z,2.61
2023-02-25T02:07:44.166Z,2.61
2023-02-25T02:08:44.148Z,2.58
2023-02-25T02:09:44.137Z,2.59
2023-02-25T02:10:44.130Z,2.61
2023-02-25T02:11:44.122Z,2.63
2023-02-25T02:12:44.135Z,2.55
2023-02-25T02:13:44.127Z,2.61
2023-02-25T02:14:44.091Z,2.55
2023-02-25T02:15:44.090Z,2.65
2023-02-25T02:16:44.123Z,2.61
2023-02-25T02:17:44.079Z,2.66
2023-02-25T02:18:44.055Z,2.69
2023-02-25T02:19:44.046Z,2.59
2023-02-25T02:20:44.041Z,2.58
2023-02-25T02:21:44.029Z,2.62
2023-02-25T02:22:44.032Z,2.51
2023-02-25T02:23:44.013Z,2.61
2023-02-25T02:24:44.005Z,2.61
2023-02-25T02:25:43.999Z,2.56
2023-02-25T02:26:43.983Z,2.61
2023-02-25T02:27:43.993Z,2.55
2023-02-25T02:28:43.971Z,2.63
2023-02-25T02:29:43.959Z,2.63
2023-02-25T02:30:43.995Z,2.59
2023-02-25T02:31:44.052Z,2.58
2023-02-25T02:32:44.043Z,2.61
2023-02-25T02:33:43.930Z,2.68
2023-02-25T02:34:43.921Z,2.63
2023-02-25T02:35:43.911Z,2.65
2023-02-25T02:36:43.903Z,2.61
2023-02-25T02:37:43.906Z,2.63
2023-02-25T02:38:43.912Z,2.48
2023-02-25T02:39:43.891Z,2.61
2023-02-25T02:40:43.866Z,2.68
2023-02-25T02:41:43.864Z,2.56
2023-02-25T02:42:43.869Z,2.63
2023-02-25T02:43:43.843Z,2.58
2023-02-25T02:44:43.830Z,2.58
2023-02-25T02:45:43.870Z,2.50
2023-02-25T02:46:43.817Z,2.56
2023-02-25T02:47:43.829Z,2.62
2023-02-25T02:48:43.795Z,2.66
2023-02-25T02:49:43.782Z,2.65
2023-02-25T02:50:43.777Z,2.56
2023-02-25T02:51:43.767Z,2.63
2023-02-25T02:52:43.773Z,2.56
2023-02-25T02:53:43.750Z,2.61
2023-02-25T02:54:43.746Z,2.58
2023-02-25T02:55:43.746Z,2.61
2023-02-25T02:56:43.723Z,2.61
2023-02-25T02:57:43.717Z,2.61
2023-02-25T02:58:43.884Z,2.62
2023-02-25T02:59:43.699Z,2.59
2023-02-25T03:00:43.758Z,2.61
2023-02-25T03:01:43.681Z,2.59
2023-02-25T03:02:43.676Z,2.65
2023-02-25T03:03:43.757Z,2.63
2023-02-25T03:04:43.664Z,2.61
2023-02-25T03:05:43.666Z,2.62
2023-02-25T03:06:43.640Z,2.63
2023-02-25T03:07:43.634Z,2.59
2023-02-25T03:08:43.635Z,2.68
2023-02-25T03:09:43.620Z,2.61
2023-02-25T03:10:43.604Z,2.66
2023-02-25T03:11:43.590Z,2.61
2023-02-25T03:12:44.598Z,2.68
2023-02-25T03:13:43.591Z,2.65
2023-02-25T03:14:43.575Z,2.63
2023-02-25T03:15:43.564Z,2.65
2023-02-25T03:16:43.633Z,2.58
2023-02-25T03:17:43.550Z,2.68
2023-02-25T03:18:43.551Z,2.63
2023-02-25T03:19:43.529Z,2.68
2023-02-25T03:20:43.527Z,2.74
2023-02-25T03:21:43.517Z,2.68
2023-02-25T03:22:43.503Z,2.69
2023-02-25T03:23:43.514Z,2.68
2023-02-25T03:24:43.494Z,2.63
2023-02-25T03:25:43.484Z,2.80
2023-02-25T03:26:43.471Z,2.77
2023-02-25T03:27:43.468Z,2.74
2023-02-25T03:28:43.482Z,2.71
2023-02-25T03:29:43.456Z,2.71
2023-02-25T03:30:43.498Z,2.66
2023-02-25T03:31:43.594Z,2.63
2023-02-25T03:32:44.513Z,2.69
2023-02-25T03:33:43.429Z,2.73
2023-02-25T03:34:43.415Z,2.59
2023-02-25T03:35:43.417Z,2.71
2023-02-25T03:36:43.422Z,2.66
2023-02-25T03:37:43.397Z,2.69
2023-02-25T03:38:43.389Z,2.68
2023-02-25T03:39:43.369Z,2.71
2023-02-25T03:40:43.359Z,2.73
2023-02-25T03:41:43.356Z,2.76
2023-02-25T03:42:43.340Z,2.71
2023-02-25T03:43:43.348Z,2.74
2023-02-25T03:44:43.328Z,2.71
2023-02-25T03:45:43.394Z,2.71
2023-02-25T03:46:43.322Z,2.63
2023-02-25T03:47:43.303Z,2.68
2023-02-25T03:48:43.304Z,2.71
2023-02-25T03:49:43.285Z,2.61
2023-02-25T03:50:43.272Z,2.66
2023-02-25T03:51:43.269Z,2.65
2023-02-25T03:52:43.262Z,2.61
2023-02-25T03:53:43.259Z,2.61
2023-02-25T03:54:43.244Z,2.66
2023-02-25T03:55:43.230Z,2.65
2023-02-25T03:56:43.230Z,2.68
2023-02-25T03:57:43.216Z,2.59
2023-02-25T03:58:43.217Z,2.58
2023-02-25T03:59:43.195Z,2.59
2023-02-25T04:00:43.188Z,2.51
2023-02-25T04:01:43.175Z,2.59
2023-02-25T04:02:43.178Z,2.63
2023-02-25T04:03:43.173Z,2.63
2023-02-25T04:04:43.239Z,2.62
2023-02-25T04:05:43.144Z,2.62
2023-02-25T04:06:43.136Z,2.53
2023-02-25T04:07:43.122Z,2.53
2023-02-25T04:08:43.122Z,2.50
2023-02-25T04:09:43.101Z,2.58
2023-02-25T04:10:43.097Z,2.44
2023-02-25T04:11:43.098Z,2.48
2023-02-25T04:12:43.152Z,2.55
2023-02-25T04:13:43.088Z,2.63
2023-02-25T04:14:43.063Z,2.61
2023-02-25T04:15:43.076Z,2.63
2023-02-25T04:16:43.040Z,2.63
2023-02-25T04:17:43.031Z,2.62
2023-02-25T04:18:43.031Z,2.53
2023-02-25T04:19:43.016Z,2.53
2023-02-25T04:20:43.032Z,2.59
2023-02-25T04:21:42.999Z,2.53
2023-02-25T04:22:42.987Z,2.44
2023-02-25T04:23:43.006Z,2.50
2023-02-25T04:24:42.964Z,2.43
2023-02-25T04:25:42.958Z,2.41
2023-02-25T04:26:42.965Z,2.48
2023-02-25T04:27:42.950Z,2.41
2023-02-25T04:28:42.951Z,2.51
2023-02-25T04:29:42.923Z,2.44
2023-02-25T04:30:43.000Z,2.50
2023-02-25T04:31:43.003Z,2.44
2023-02-25T04:32:43.008Z,2.44
2023-02-25T04:33:42.908Z,2.45
2023-02-25T04:34:42.885Z,2.44
2023-02-25T04:35:42.881Z,2.47
2023-02-25T04:36:42.870Z,2.47
2023-02-25T04:37:42.865Z,2.47
2023-02-25T04:38:43.860Z,2.47
2023-02-25T04:39:42.847Z,2.51
2023-02-25T04:40:42.835Z,2.50
2023-02-25T04:41:42.826Z,2.47
2023-02-25T04:42:42.816Z,2.45
2023-02-25T04:43:42.865Z,2.51
2023-02-25T04:44:42.798Z,2.53
2023-02-25T04:45:42.787Z,2.45
2023-02-25T04:46:42.840Z,2.53
2023-02-25T04:47:42.770Z,2.38
2023-02-25T04:48:42.773Z,2.37
2023-02-25T04:49:42.755Z,2.44
2023-02-25T04:50:42.740Z,2.50
2023-02-25T04:51:42.730Z,2.47
2023-02-25T04:52:42.727Z,2.45
2023-02-25T04:53:42.727Z,2.55
2023-02-25T04:54:42.716Z,2.37
2023-02-25T04:55:42.719Z,2.51
2023-02-25T04:56:42.688Z,2.48
2023-02-25T04:57:42.775Z,2.53
2023-02-25T04:58:42.689Z,2.55
2023-02-25T04:59:42.675Z,2.53
2023-02-25T05:00:42.655Z,2.50
2023-02-25T05:01:42.713Z,2.62
2023-02-25T05:02:42.639Z,2.53
2023-02-25T05:03:42.644Z,2.55
2023-02-25T05:04:42.695Z,2.51
2023-02-25T05:05:42.617Z,2.53
2023-02-25T05:06:42.619Z,2.50
2023-02-25T05:07:42.597Z,2.51
2023-02-25T05:08:42.602Z,2.45
2023-02-25T05:09:42.579Z,2.45
2023-02-25T05:10:42.568Z,2.50
2023-02-25T05:11:42.563Z,2.58
2023-02-25T05:12:42.558Z,2.61
2023-02-25T05:13:42.561Z,2.55
2023-02-25T05:14:42.537Z,2.59
2023-02-25T05:15:42.536Z,2.59
2023-02-25T05:16:42.552Z,2.62
2023-02-25T05:17:42.510Z,2.59
2023-02-25T05:18:42.701Z,2.55
2023-02-25T05:19:42.491Z,2.47
2023-02-25T05:20:42.528Z,2.61
2023-02-25T05:21:42.483Z,2.55
2023-02-25T05:22:42.484Z,2.51
2023-02-25T05:23:42.470Z,2.55
2023-02-25T05:24:42.455Z,2.44
2023-02-25T05:26:14.350Z,2.48
2023-02-25T05:26:42.429Z,2.40
2023-02-25T05:27:42.427Z,2.50
2023-02-25T05:28:42.427Z,2.45
2023-02-25T05:29:42.430Z,2.51
2023-02-25T05:30:42.498Z,2.47
2023-02-25T05:31:42.598Z,2.44
2023-02-25T05:32:42.506Z,2.51
2023-02-25T05:33:42.386Z,2.38
2023-02-25T05:34:42.367Z,2.43
2023-02-25T05:35:42.356Z,2.33
2023-02-25T05:36:42.354Z,2.44
2023-02-25T05:37:42.335Z,2.48
2023-02-25T05:38:42.348Z,2.48
2023-02-25T05:39:42.323Z,2.41
2023-02-25T05:40:42.318Z,2.40
2023-02-25T05:41:42.302Z,2.50
2023-02-25T05:42:42.312Z,2.36
2023-02-25T05:43:42.309Z,2.37
2023-02-25T05:44:42.273Z,2.55
2023-02-25T05:45:42.274Z,2.50
2023-02-25T05:46:42.321Z,2.47
2023-02-25T05:47:42.276Z,2.44
2023-02-25T05:48:42.294Z,2.41
2023-02-25T05:49:42.239Z,2.44
2023-02-25T05:50:42.228Z,2.38
2023-02-25T05:51:42.220Z,2.51
2023-02-25T05:52:42.216Z,2.44
2023-02-25T05:53:42.227Z,2.50
2023-02-25T05:54:42.196Z,2.53
2023-02-25T05:55:42.203Z,2.50
2023-02-25T05:56:43.178Z,2.48
2023-02-25T05:57:42.169Z,2.51
2023-02-25T05:58:42.170Z,2.51
2023-02-25T05:59:42.149Z,2.55
2023-02-25T06:00:42.149Z,2.55
2023-02-25T06:01:42.207Z,2.55
2023-02-25T06:02:42.124Z,2.47
2023-02-25T06:03:42.129Z,2.50
2023-02-25T06:04:42.104Z,2.51
2023-02-25T06:05:42.098Z,2.58
2023-02-25T06:06:42.098Z,2.47
2023-02-25T06:07:42.089Z,2.45
2023-02-25T06:08:42.079Z,2.40
2023-02-25T06:09:42.062Z,2.50
2023-02-25T06:10:42.091Z,2.43
2023-02-25T06:11:42.072Z,2.47
2023-02-25T06:12:42.032Z,2.45
2023-02-25T06:13:42.034Z,2.43
2023-02-25T06:14:42.019Z,2.38
2023-02-25T06:15:42.007Z,2.41
2023-02-25T06:16:42.017Z,2.43
2023-02-25T06:17:41.997Z,2.33
2023-02-25T06:18:41.991Z,2.33
2023-02-25T06:19:41.976Z,2.37
2023-02-25T06:20:41.966Z,2.48
2023-02-25T06:21:41.954Z,2.43
2023-02-25T06:22:41.942Z,2.48
2023-02-25T06:23:41.949Z,2.45
2023-02-25T06:24:41.928Z,2.56
2023-02-25T06:25:41.921Z,2.53
2023-02-25T06:26:42.006Z,2.50
2023-02-25T06:27:41.906Z,2.45
2023-02-25T06:28:41.904Z,2.47
2023-02-25T06:29:42.023Z,2.56
2023-02-25T06:30:41.928Z,2.55
2023-02-25T06:31:42.004Z,2.56
2023-02-25T06:32:41.988Z,2.65
2023-02-25T06:33:41.849Z,2.55
2023-02-25T06:34:41.855Z,2.58
2023-02-25T06:35:41.828Z,2.48
2023-02-25T06:36:41.820Z,2.56
2023-02-25T06:37:41.814Z,2.48
2023-02-25T06:38:41.826Z,2.56
2023-02-25T06:39:41.808Z,2.45
2023-02-25T06:40:41.792Z,2.44
2023-02-25T06:41:41.788Z,2.56
2023-02-25T06:42:41.779Z,2.51
2023-02-25T06:43:41.761Z,2.58
2023-02-25T06:44:41.767Z,2.48
2023-02-25T06:45:41.794Z,2.55
2023-02-25T06:46:41.770Z,2.58
2023-02-25T06:47:41.728Z,2.58
2023-02-25T06:48:41.732Z,2.51
2023-02-25T06:49:41.719Z,2.58
2023-02-25T06:50:41.697Z,2.55
2023-02-25T06:51:41.706Z,2.66
2023-02-25T06:52:41.685Z,2.59
2023-02-25T06:53:41.691Z,2.55
2023-02-25T06:54:41.694Z,2.50
2023-02-25T06:55:41.673Z,2.50
2023-02-25T06:56:41.644Z,2.50
2023-02-25T06:57:41.634Z,2.55
2023-02-25T06:58:41.628Z,2.38
2023-02-25T06:59:41.629Z,2.45
2023-02-25T07:00:41.608Z,2.45
2023-02-25T07:01:41.669Z,2.33
2023-02-25T07:02:41.592Z,2.41
2023-02-25T07:03:41.588Z,2.51
2023-02-25T07:04:43.850Z,2.43
2023-02-25T07:05:42.561Z,2.43
2023-02-25T07:06:42.556Z,2.41
2023-02-25T07:07:41.546Z,2.37
2023-02-25T07:08:41.538Z,2.30
2023-02-25T07:09:41.538Z,2.38
2023-02-25T07:10:41.549Z,2.51
2023-02-25T07:11:41.547Z,2.38
2023-02-25T07:12:41.534Z,2.33
2023-02-25T07:13:41.495Z,2.40
2023-02-25T07:14:41.498Z,2.40
2023-02-25T07:15:41.503Z,2.53
2023-02-25T07:16:41.471Z,2.40
2023-02-25T07:17:41.464Z,2.43
2023-02-25T07:18:41.454Z,2.43
2023-02-25T07:19:41.456Z,2.45
2023-02-25T07:20:41.432Z,2.47
2023-02-25T07:21:41.422Z,2.43
2023-02-25T07:22:41.425Z,2.43
2023-02-25T07:23:41.410Z,2.56
2023-02-25T07:24:41.413Z,2.45
2023-02-25T07:25:41.395Z,2.48
2023-02-25T07:26:41.382Z,2.40
2023-02-25T07:27:43.580Z,2.45
2023-02-25T07:28:42.372Z,2.50
2023-02-25T07:29:41.359Z,2.38
2023-02-25T07:30:41.460Z,2.14
2023-02-25T07:31:41.584Z,2.07
2023-02-25T07:32:41.481Z,2.05
2023-02-25T07:33:41.316Z,2.05
2023-02-25T07:34:41.326Z,2.11
2023-02-25T07:35:41.311Z,2.08
2023-02-25T07:36:41.295Z,2.12
2023-02-25T07:37:41.288Z,2.09
2023-02-25T07:38:41.296Z,2.11
2023-02-25T07:39:41.294Z,2.07
2023-02-25T07:40:41.263Z,1.95
2023-02-25T07:41:41.278Z,1.75
2023-02-25T07:42:41.251Z,1.63
2023-02-25T07:43:41.236Z,1.63
2023-02-25T07:44:41.264Z,1.61
2023-02-25T07:45:41.224Z,1.63
2023-02-25T07:46:41.211Z,1.49
2023-02-25T07:47:42.217Z,1.43
2023-02-25T07:48:41.210Z,1.47
2023-02-25T07:49:41.204Z,1.42
2023-02-25T07:50:41.186Z,1.47
2023-02-25T07:51:41.175Z,1.49
2023-02-25T07:52:41.173Z,1.50
2023-02-25T07:53:41.179Z,1.54
2023-02-25T07:54:41.163Z,1.54
2023-02-25T07:55:41.140Z,1.49
2023-02-25T07:56:41.138Z,1.44
2023-02-25T07:57:41.124Z,1.52
2023-02-25T07:58:41.125Z,1.56
2023-02-25T07:59:41.120Z,1.54
2023-02-25T08:00:41.097Z,1.64
2023-02-25T08:01:41.090Z,1.63
2023-02-25T08:02:41.120Z,1.56
2023-02-25T08:03:41.073Z,1.49
2023-02-25T08:04:41.120Z,1.54
2023-02-25T08:05:41.058Z,1.49
2023-02-25T08:06:41.076Z,1.64
2023-02-25T08:07:41.039Z,1.60
2023-02-25T08:08:41.029Z,1.63
2023-02-25T08:09:41.065Z,1.65
2023-02-25T08:10:41.016Z,1.68
2023-02-25T08:11:41.021Z,1.71
2023-02-25T08:12:41.000Z,1.70
2023-02-25T08:13:40.989Z,1.70
2023-02-25T08:14:40.991Z,1.79
2023-02-25T08:15:41.043Z,1.88
2023-02-25T08:16:40.965Z,1.98
2023-02-25T08:17:40.954Z,1.83
2023-02-25T08:18:40.943Z,2.00
2023-02-25T08:19:40.944Z,2.02
2023-02-25T08:20:40.929Z,2.04
2023-02-25T08:21:40.911Z,2.14
2023-02-25T08:22:40.908Z,2.11
2023-02-25T08:23:40.897Z,2.07
2023-02-25T08:24:40.907Z,2.07
2023-02-25T08:25:40.890Z,1.98
2023-02-25T08:26:40.872Z,1.98
2023-02-25T08:27:40.874Z,2.09
2023-02-25T08:28:40.861Z,2.15
2023-02-25T08:29:40.866Z,2.22
2023-02-25T08:30:40.920Z,2.20
2023-02-25T08:31:41.061Z,2.15
2023-02-25T08:32:40.956Z,2.19
2023-02-25T08:33:40.828Z,2.20
2023-02-25T08:34:40.812Z,2.37
2023-02-25T08:35:40.793Z,2.20
2023-02-25T08:36:40.783Z,2.36
2023-02-25T08:37:40.789Z,2.37
2023-02-25T08:38:40.765Z,2.37
2023-02-25T08:39:40.771Z,2.38
2023-02-25T08:40:40.758Z,2.25
2023-02-25T08:41:40.742Z,2.33
2023-02-25T08:42:40.734Z,2.38
2023-02-25T08:43:40.728Z,2.36
2023-02-25T08:44:40.728Z,2.51
2023-02-25T08:45:40.708Z,2.53
2023-02-25T08:46:40.765Z,2.81
2023-02-25T08:47:40.693Z,2.89
2023-02-25T08:48:40.685Z,2.94
2023-02-25T08:49:40.696Z,2.87
2023-02-25T08:50:40.663Z,2.81
2023-02-25T08:51:40.655Z,2.89
2023-02-25T08:52:42.161Z,2.76
2023-02-25T08:53:41.638Z,2.66
2023-02-25T08:54:40.641Z,2.68
2023-02-25T08:55:40.620Z,2.71
2023-02-25T08:56:40.612Z,2.69
2023-02-25T08:57:40.599Z,2.65
2023-02-25T08:58:40.597Z,2.63
2023-02-25T08:59:40.600Z,2.41
2023-02-25T09:00:40.610Z,2.30
2023-02-25T09:01:40.566Z,2.18
2023-02-25T09:02:40.552Z,2.02
2023-02-25T09:03:40.546Z,1.86
2023-02-25T09:04:40.603Z,1.82
2023-02-25T09:05:40.540Z,1.63
2023-02-25T09:06:40.515Z,1.44
2023-02-25T09:07:40.511Z,1.38
2023-02-25T09:08:40.523Z,1.42
2023-02-25T09:09:40.508Z,1.50
2023-02-25T09:10:49.941Z,1.39
2023-02-25T09:11:42.490Z,1.28
2023-02-25T09:12:40.472Z,1.39
2023-02-25T09:13:40.461Z,1.49
2023-02-25T09:14:40.459Z,1.43
2023-02-25T09:15:40.442Z,1.53
2023-02-25T09:16:40.468Z,1.50
2023-02-25T09:17:40.424Z,1.49
2023-02-25T09:18:40.414Z,1.54
2023-02-25T09:19:40.422Z,1.43
2023-02-25T09:20:40.397Z,1.44
2023-02-25T09:21:40.428Z,1.54
2023-02-25T09:22:40.377Z,1.63
2023-02-25T09:23:40.373Z,1.61
2023-02-25T09:24:40.375Z,1.61
2023-02-25T09:25:40.349Z,1.77
2023-02-25T09:26:40.481Z,1.70
2023-02-25T09:27:40.335Z,1.63
2023-02-25T09:28:40.320Z,1.64
2023-02-25T09:29:40.342Z,1.86
2023-02-25T09:30:40.334Z,1.85
2023-02-25T09:31:40.492Z,1.93
2023-02-25T09:32:40.351Z,2.04
2023-02-25T09:33:40.282Z,2.08
2023-02-25T09:34:40.286Z,2.05
2023-02-25T09:35:40.270Z,2.12
2023-02-25T09:36:40.265Z,2.22
2023-02-25T09:37:40.258Z,2.26
2023-02-25T09:38:40.242Z,2.33
2023-02-25T09:39:40.277Z,2.22
2023-02-25T09:40:40.224Z,2.01
2023-02-25T09:41:40.214Z,2.05
2023-02-25T09:42:40.207Z,1.98
2023-02-25T09:43:40.219Z,2.14
2023-02-25T09:44:40.207Z,2.18
2023-02-25T09:45:40.195Z,2.36
2023-02-25T09:46:40.175Z,2.41
2023-02-25T09:47:40.221Z,2.40
2023-02-25T09:48:40.161Z,2.56
2023-02-25T09:49:40.159Z,2.44
2023-02-25T09:50:40.142Z,2.38
2023-02-25T09:51:40.132Z,2.41
2023-02-25T09:52:40.121Z,2.36
2023-02-25T09:53:40.113Z,2.43
2023-02-25T09:54:40.122Z,2.38
2023-02-25T09:55:40.096Z,2.29
2023-02-25T09:56:40.096Z,2.30
2023-02-25T09:57:40.077Z,2.44
2023-02-25T09:58:40.068Z,2.40
2023-02-25T09:59:40.065Z,2.53
2023-02-25T10:00:40.067Z,2.56
2023-02-25T10:01:40.051Z,2.53
2023-02-25T10:02:40.098Z,2.55
2023-02-25T10:03:40.031Z,2.45
2023-02-25T10:04:40.028Z,2.55
2023-02-25T10:05:41.029Z,2.66
2023-02-25T10:06:41.518Z,2.66
2023-02-25T10:07:40.003Z,2.66
2023-02-25T10:08:39.998Z,2.80
2023-02-25T10:09:40.006Z,2.62
2023-02-25T10:10:39.989Z,2.51
2023-02-25T10:11:39.973Z,2.51
2023-02-25T10:12:39.959Z,2.63
2023-02-25T10:13:39.961Z,2.63
2023-02-25T10:14:39.941Z,2.66
2023-02-25T10:15:39.953Z,2.65
2023-02-25T10:16:39.956Z,2.66
2023-02-25T10:17:39.910Z,2.62
2023-02-25T10:18:39.922Z,2.77
2023-02-25T10:19:39.898Z,2.79
2023-02-25T10:20:39.910Z,2.69
2023-02-25T10:21:39.875Z,2.68
2023-02-25T10:22:39.879Z,2.66
2023-02-25T10:23:39.860Z,2.69
2023-02-25T10:24:39.860Z,2.63
2023-02-25T10:25:39.852Z,2.63
2023-02-25T10:26:39.830Z,2.73
2023-02-25T10:27:39.823Z,3.16
2023-02-25T10:28:39.812Z,3.39
2023-02-25T10:29:39.806Z,3.86
2023-02-25T10:30:39.901Z,3.95
2023-02-25T10:31:39.940Z,4.17
2023-02-25T10:32:39.831Z,4.14
2023-02-25T10:33:39.765Z,3.99
2023-02-25T10:34:39.759Z,3.78
2023-02-25T10:35:39.759Z,3.53
2023-02-25T10:36:39.732Z,3.41
2023-02-25T10:37:39.728Z,3.30
2023-02-25T10:38:39.722Z,3.16
2023-02-25T10:39:39.708Z,3.05
2023-02-25T10:40:39.711Z,3.08
2023-02-25T10:41:39.693Z,3.01
2023-02-25T10:42:39.683Z,2.84
2023-02-25T10:43:39.677Z,2.98
2023-02-25T10:44:39.671Z,2.95
2023-02-25T10:45:39.683Z,2.92
2023-02-25T10:46:39.689Z,3.12
2023-02-25T10:47:39.659Z,3.20
2023-02-25T10:48:39.630Z,3.23
2023-02-25T10:49:39.623Z,3.05
2023-02-25T10:50:45.988Z,2.95
2023-02-25T10:51:41.618Z,2.87
2023-02-25T10:52:39.603Z,2.66
2023-02-25T10:53:39.587Z,2.59
2023-02-25T10:54:39.578Z,2.47
2023-02-25T10:55:39.585Z,2.30
2023-02-25T10:56:39.567Z,2.02
2023-02-25T10:57:39.562Z,1.67
2023-02-25T10:58:39.552Z,1.53
2023-02-25T10:59:39.566Z,1.50
2023-02-25T11:00:39.572Z,1.47
2023-02-25T11:01:39.569Z,1.42
2023-02-25T11:02:39.548Z,1.32
2023-02-25T11:03:39.502Z,1.34
2023-02-25T11:04:39.526Z,1.50
2023-02-25T11:05:39.495Z,1.49
2023-02-25T11:06:39.476Z,1.36
2023-02-25T11:07:39.475Z,1.50
2023-02-25T11:08:39.468Z,1.47
2023-02-25T11:09:39.456Z,1.39
2023-02-25T11:10:39.458Z,1.42
2023-02-25T11:11:39.445Z,1.36
2023-02-25T11:12:39.432Z,1.43
2023-02-25T11:13:39.422Z,1.47
2023-02-25T11:14:39.410Z,1.35
2023-02-25T11:15:45.618Z,1.44
2023-02-25T11:16:41.418Z,1.43
2023-02-25T11:17:39.392Z,1.61
2023-02-25T11:18:39.384Z,1.60
2023-02-25T11:19:39.374Z,1.85
2023-02-25T11:20:39.381Z,1.74
2023-02-25T11:21:39.357Z,2.00
2023-02-25T11:22:39.343Z,2.22
2023-02-25T11:23:39.335Z,2.45
2023-02-25T11:24:39.342Z,2.53
2023-02-25T11:25:39.329Z,2.55
2023-02-25T11:26:39.342Z,2.56
2023-02-25T11:27:39.579Z,2.48
2023-02-25T11:28:39.289Z,2.55
2023-02-25T11:29:39.288Z,2.53
2023-02-25T11:30:39.295Z,2.40
2023-02-25T11:31:39.389Z,2.56
2023-02-25T11:32:39.276Z,2.65
2023-02-25T11:33:39.248Z,2.66
2023-02-25T11:34:39.275Z,2.66
2023-02-25T11:35:39.255Z,2.61
2023-02-25T11:36:39.224Z,2.69
2023-02-25T11:37:40.922Z,2.48
2023-02-25T11:38:39.203Z,2.47
2023-02-25T11:39:39.201Z,2.58
2023-02-25T11:40:39.196Z,2.56
2023-02-25T11:41:39.178Z,2.45
2023-02-25T11:42:39.168Z,2.38
2023-02-25T11:43:39.155Z,2.38
2023-02-25T11:44:39.144Z,2.44
2023-02-25T11:45:39.149Z,2.45
2023-02-25T11:46:39.168Z,2.55
2023-02-25T11:47:39.120Z,2.53
2023-02-25T11:48:39.109Z,2.66
2023-02-25T11:49:40.212Z,2.66
2023-02-25T11:50:39.107Z,2.59
2023-02-25T11:51:39.082Z,2.63
2023-02-25T11:52:39.072Z,2.63
2023-02-25T11:53:39.071Z,2.73
2023-02-25T11:54:39.053Z,2.74
2023-02-25T11:55:39.059Z,2.83
2023-02-25T11:56:39.084Z,2.80
2023-02-25T11:57:39.048Z,2.94
2023-02-25T11:58:39.096Z,2.79
2023-02-25T11:59:39.011Z,2.87
2023-02-25T12:00:39.014Z,2.87
2023-02-25T12:01:39.015Z,2.89
2023-02-25T12:02:39.023Z,2.95
2023-02-25T12:03:39.007Z,2.92
2023-02-25T12:04:39.030Z,2.86
2023-02-25T12:05:39.009Z,2.89
2023-02-25T12:06:38.944Z,2.95
2023-02-25T12:07:38.934Z,2.97
2023-02-25T12:08:38.926Z,2.97
2023-02-25T12:09:38.918Z,3.07
2023-02-25T12:10:38.914Z,2.97
2023-02-25T12:11:38.910Z,3.16
2023-02-25T12:12:38.893Z,3.13
2023-02-25T12:13:38.892Z,3.07
2023-02-25T12:14:38.872Z,3.05
2023-02-25T12:15:38.870Z,3.01
2023-02-25T12:16:38.921Z,2.94
2023-02-25T12:17:38.845Z,2.81
2023-02-25T12:18:38.857Z,2.92
2023-02-25T12:19:38.854Z,2.97
2023-02-25T12:20:39.836Z,2.94
2023-02-25T12:21:38.815Z,3.15
2023-02-25T12:22:38.813Z,3.20
2023-02-25T12:23:38.796Z,3.25
2023-02-25T12:24:38.820Z,3.20
2023-02-25T12:25:38.796Z,3.30
2023-02-25T12:26:38.779Z,3.15
2023-02-25T12:27:38.780Z,3.12
2023-02-25T12:28:38.760Z,3.12
2023-02-25T12:29:38.750Z,3.12
2023-02-25T12:30:38.758Z,3.08
2023-02-25T12:31:38.900Z,3.10
2023-02-25T12:32:38.726Z,3.22
2023-02-25T12:33:38.715Z,3.28
2023-02-25T12:34:38.712Z,3.35
2023-02-25T12:35:38.696Z,3.26
2023-02-25T12:36:38.712Z,3.33
2023-02-25T12:37:38.679Z,3.41
2023-02-25T12:38:38.671Z,3.45
2023-02-25T12:39:38.664Z,3.42
2023-02-25T12:40:38.655Z,3.39
2023-02-25T12:41:38.658Z,3.49
2023-02-25T12:42:38.650Z,3.35
2023-02-25T12:43:38.626Z,3.45
2023-02-25T12:44:38.666Z,3.37
2023-02-25T12:45:38.652Z,3.37
2023-02-25T12:46:38.608Z,3.52
2023-02-25T12:47:38.589Z,3.57
2023-02-25T12:48:38.580Z,3.63
2023-02-25T12:49:38.575Z,3.82
2023-02-25T12:50:38.560Z,4.00
2023-02-25T12:51:38.574Z,3.99
2023-02-25T12:52:38.548Z,3.81
2023-02-25T12:53:38.538Z,3.75
2023-02-25T12:54:38.523Z,3.64
2023-02-25T12:55:38.548Z,3.46
2023-02-25T12:56:38.518Z,3.33
2023-02-25T12:57:38.503Z,2.98
2023-02-25T12:58:38.497Z,2.92
2023-02-25T12:59:38.486Z,2.86
2023-02-25T13:00:38.475Z,2.77
2023-02-25T13:01:38.499Z,2.83
2023-02-25T13:02:38.465Z,2.66
2023-02-25T13:03:38.485Z,2.74
2023-02-25T13:04:38.448Z,2.68
2023-02-25T13:05:38.439Z,2.43
2023-02-25T13:06:38.443Z,2.40
2023-02-25T13:07:38.430Z,2.38
2023-02-25T13:08:38.429Z,2.45
2023-02-25T13:09:38.407Z,2.40
2023-02-25T13:10:38.401Z,2.50
2023-02-25T13:12:01.212Z,2.58
2023-02-25T13:12:40.383Z,2.44
2023-02-25T13:13:38.400Z,2.50
2023-02-25T13:14:38.362Z,2.55
2023-02-25T13:15:39.375Z,2.45
2023-02-25T13:16:38.357Z,2.41
2023-02-25T13:17:38.346Z,2.41
2023-02-25T13:18:38.337Z,2.58